首页
METAR-TAF:

METAR-TAF

机场 :

Phoenix Deer Valley Airport

鳳凰城, 亞利桑那州, 美国

纬度: 33-41-25N, 经度: 112-03-56W, 海拔: 450米

当前天气观测

该预报发布于33分钟前的23:53 UTC
风速10节,风向西转西南,有时为19节阵风
温度 42°C
湿度 9%
气压 1004 hPa
能見度: 16.1公里
天空无云

METAR: KDVT 152353Z 24010G19KT 10SM CLR 42/03 A2965 RMK AO2 SLP010 T04220033 10428 20361 56024

时间: 17:26 (00:26 UTC)

预报

该预报发布于58分钟前的23:28 UTC
预报有效从16日的 00点(UTC)到 16日的 24点(UTC)
风速10节,风向西转西南,有时为18节阵风
能見度: 10公里
天空无云
从 16日的 0400点(UTC)
风速9节,风向西南
能見度: 10公里
天空无云
从 16日的 0700点(UTC)
风速4节,风向多变
能見度: 10公里
天空无云
从 16日的 1500点(UTC)
风速7节,风向南转南东
能見度: 10公里
天空无云
从 16日的 2000点(UTC)
风速12节,风向西南,有时为22节阵风
能見度: 10公里
天空无云

TAF: KDVT 152328Z 1600/1624 24010G18KT P6SM SKC FM160400 23009KT P6SM SKC FM160700 VRB04KT P6SM SKC FM161500 15007KT P6SM SKC FM162000 23012G22KT P6SM SKC

超过4000个机场的气象观测和天气预报(METAR&TAF报告)。

可查询的气象台以黄色和红色小点在地图上表示。

将鼠标移到小点上方,可查看气象台名称。

然后点击查看天气观测和预报。

如需切换地图:点击带黑十字的绿色按钮放大地图;点击带横线的绿色按钮缩小地图;或者点击绿色箭头查看邻近地区的地图。


METAR-TAF: